Архив погоды в Анучино

Метеограмма Анучино
Вторник, 14 Августа
Время местн. Темп Ветер Видим Явления Облачность нижн/средн/верх Атм. давл. Влжн Точка росы ВНГО R Сост. почвы Tg s
Напр Скр Прв ур.ст ур.м изм
19:00 +20.8° штиль 0 - более 50 км ливневый дождь облачно 743 759 +0.4 95% +20° 300 м 10 - - -
16:00 +21.3° С 1 - более 50 км небо без изменений {ливневые осадки} облачно 742 759 +0.1 92% +19.9° 300 м - - - -
13:00 +21.2° С,С-В 1 - 10 км слабый ливневый дождь облачно 743 759 +0.1 96% +20.5° 300 м - - - -
10:00 +20.9° С,С-В 1 - 50 км - облачно 743 759 0 96% +20.3° 300 м - - - -
07:00 +19.7° Ю-З 1 - более 50 км - облачно 743 759 +0.3 98% +19.4° 200 м 0 Влажная (без луж) +20° -
04:00 +19.5° С,С-В 1 - более 50 км - облачно 742 758 -0.3 98% +19.2° 200 м - - - -
01:00 +19.3° З 1 - более 50 км - облачно 743 759 +0.2 98% +19° 200 м - - - -
Понедельник, 13 Августа
Время местн. Темп Ветер Видим Явления Облачность нижн/средн/верх Атм. давл. Влжн Точка росы ВНГО R Сост. почвы Tg s
Напр Скр Прв ур.ст ур.м изм
22:00 +20.1° штиль 0 - более 50 км небо без изменений {ливневые осадки} облачно 742 759 +0.8 98% +19.7° 600 м - - - -
19:00 +22.7° штиль 0 - более 50 км - облачно 741 757 -0.1 89% +20.8° 1 км 20 - - -
16:00 +22.3° штиль 0 - 50 км ливневый дождь облачно 741 757 -0.3 92% +21° 300 м - - - -
13:00 +21.2° штиль 0 - 10 км слабый ливневый дождь облачно 742 758 -0.2 98% +20.8° 300 м - - - -
10:00 +21.3° С-В 1 - более 50 км ливневый дождь облачно 742 758 +0.2 96% +20.7° 300 м - - - -
07:00 +20.3° З,Ю-З 2 - 50 км - облачно 742 758 -0.4 98% +20° 300 м 1 Влажная (без луж) - -
04:00 +20.1° штиль 0 - 50 км небо без изменений {ливневые осадки} облачно 742 758 -0.5 98% +19.8° 200 м - - - -
01:00 +20.8° З 1 - 50 км небо без изменений {ливневые осадки} облачно 742 759 +0.1 98% +20.5° 200 м - - - -
Воскресенье, 12 Августа
Время местн. Темп Ветер Видим Явления Облачность нижн/средн/верх Атм. давл. Влжн Точка росы ВНГО R Сост. почвы Tg s
Напр Скр Прв ур.ст ур.м изм
22:00 +21.4° штиль 0 - 10 км слабый ливневый дождь облачно 742 758 +1 97% +20.9° 1 км - - - -
19:00 +23.1° штиль 0 - 10 км слабый ливневый дождь облачно 741 757 +0.1 88% +21° 1 км 0 - - -
16:00 +24.6° Ю-З 1 - более 50 км - облачно 741 757 -0.2 76% +20.1° 1 км - - - -
13:00 +25.4° Ю 1 - более 50 км - облачно 742 757 -0.2 68% +19.1° 1 км - - - -
10:00 +22° З 2 - более 50 км - облачно 742 758 +0.1 81% +18.5° более 2.5 км - - - -
07:00 +17.8° З 1 - 50 км - облачно 742 758 +0.6 94% +16.9° 600 м 0 Сухая (без трещин) - -
04:00 +17.5° Ю-З 1 - более 50 км - облачно 741 757 -0.2 97% +17° 1 км - - - -
01:00 +18.2° Ю,Ю-З 1 - 50 км - облачно 741 758 +0.6 97% +17.7° 1 км - - - -
Суббота, 11 Августа
Время местн. Темп Ветер Видим Явления Облачность нижн/средн/верх Атм. давл. Влжн Точка росы ВНГО R Сост. почвы Tg s
Напр Скр Прв ур.ст ур.м изм
22:00 +19.4° Ю-З 1 - более 50 км - облачно 741 757 +1.2 93% +18.2° 1 км - - - -
19:00 +26.5° З 1 - более 50 км - переменная облачность 739 755 +0.1 57% +17.4° более 2.5 км 0 - - -
16:00 +26.7° С-З 1 - более 50 км - преимущественно облачно 740 755 -0.6 57% +17.4° 1 км - - - -